Flight Track Log - Related Links

Times and Time Zones

All times are in EDT time to prevent confusion due to time zone crossing. See the FIN666 flight status page for this flight to view local times or setup timezone preferences in your user account.

Time Position Orientation Groundspeed Altitude Reporting Facility
EDT Latitude Longitude Course Direction KTS MPH feet Rate Location/Type
Tue 07:26:00 AM 55.8191 13.0714 49° Northeast  Level Estimated
Tue 07:27:00 AM 55.8859 13.2108 49° Northeast  Level Estimated
Tue 07:28:00 AM 55.9525 13.3508 50° Northeast  Level Estimated
Tue 07:29:00 AM 56.0189 13.4911 50° Northeast  Level Estimated
Tue 07:30:00 AM 56.0852 13.6320 50° Northeast  Level Estimated
Tue 07:31:00 AM 56.1513 13.7734 50° Northeast  Level Estimated
Tue 07:32:00 AM 56.2238 13.9292 50° Northeast  Level Estimated
Tue 07:33:00 AM 56.2961 14.0857 50° Northeast  Level Estimated
Tue 07:34:00 AM 56.3681 14.2428 50° Northeast  Level Estimated
Tue 07:35:00 AM 56.4400 14.4004 50° Northeast  Level Estimated
Tue 07:36:00 AM 56.5116 14.5586 51° Northeast  Level Estimated
Tue 07:37:00 AM 56.5831 14.7175 51° Northeast  Level Estimated
Tue 07:38:00 AM 56.6544 14.8769 51° Northeast  Level Estimated
Tue 07:39:00 AM 56.7254 15.0369 51° Northeast  Level Estimated
Tue 07:40:00 AM 56.7962 15.1976 51° Northeast  Level Estimated
Tue 07:41:00 AM 56.8669 15.3588 51° Northeast  Level Estimated
Tue 07:42:00 AM 56.9373 15.5207 51° Northeast  Level Estimated
Tue 07:43:00 AM 57.0075 15.6831 52° Northeast  Level Estimated
Tue 07:44:00 AM 57.0775 15.8462 52° Northeast  Level Estimated
Tue 07:45:00 AM 57.1473 16.0099 52° Northeast  Level Estimated
Tue 07:46:00 AM 57.2169 16.1742 52° Northeast  Level Estimated
Tue 07:47:00 AM 57.2863 16.3392 52° Northeast  Level Estimated
Tue 07:48:00 AM 57.3554 16.5047 52° Northeast  Level Estimated
Tue 07:49:00 AM 57.4234 16.6686 52° Northeast  Level Estimated
Tue 07:50:00 AM 57.4912 16.8331 52° Northeast  Level Estimated
Tue 07:51:00 AM 57.5587 16.9982 53° Northeast  Level Estimated
Tue 07:52:00 AM 57.6260 17.1639 53° Northeast  Level Estimated
Tue 07:53:00 AM 57.6931 17.3302 53° Northeast  Level Estimated
Tue 07:54:00 AM 57.7601 17.4971 53° Northeast  Level Estimated
Tue 07:55:00 AM 57.8267 17.6647 53° Northeast  Level Estimated
Tue 07:56:00 AM 57.8932 17.8328 53° Northeast  Level Estimated
Tue 07:57:00 AM 57.9594 18.0016 53° Northeast  Level Estimated
Tue 07:58:00 AM 58.0254 18.1710 54° Northeast  Level Estimated
Tue 07:59:00 AM 58.0912 18.3411 54° Northeast  Level Estimated
Tue 08:00:00 AM 58.1567 18.5117 54° Northeast  Level Estimated
Tue 08:01:00 AM 58.2221 18.6830 54° Northeast  Level Estimated
Tue 08:02:00 AM 58.2872 18.8550 54° Northeast  Level Estimated
Tue 08:03:00 AM 58.3520 19.0275 54° Northeast  Level Estimated
Tue 08:04:00 AM 58.4166 19.2007 54° Northeast  Level Estimated
Tue 08:05:00 AM 58.4810 19.3745 55° Northeast  Level Estimated
Tue 08:06:00 AM 58.5452 19.5490 55° Northeast  Level Estimated
Tue 08:07:00 AM 58.6091 19.7241 55° Northeast  Level Estimated
Tue 08:08:00 AM 58.6728 19.8999 55° Northeast  Level Estimated
Tue 08:09:00 AM 58.7362 20.0763 55° Northeast  Level Estimated
Tue 08:10:00 AM 58.7994 20.2533 55° Northeast  Level Estimated
Tue 08:11:00 AM 58.8624 20.4310 56° Northeast  Level Estimated
Tue 08:12:00 AM 58.9251 20.6093 56° Northeast  Level Estimated
Tue 08:13:00 AM 58.9876 20.7882 56° Northeast  Level Estimated
Tue 08:14:00 AM 59.0498 20.9679 56° Northeast  Level Estimated
Tue 08:15:00 AM 59.1118 21.1481 56° Northeast  Level Estimated
Tue 08:16:00 AM 59.1735 21.3291 56° Northeast  Level Estimated
Tue 08:17:00 AM 59.2350 21.5106 56° Northeast  Level Estimated
Tue 08:18:00 AM 59.2953 21.6904 57° Northeast  Level Estimated
Tue 08:19:00 AM 59.3554 21.8707 57° Northeast  Level Estimated
Tue 08:20:00 AM 59.4153 22.0517 57° Northeast  Level Estimated
Tue 08:21:00 AM 59.4749 22.2334 57° Northeast  Level Estimated
Tue 08:22:00 AM 59.5343 22.4156 57° Northeast  Level Estimated
Tue 08:23:00 AM 59.5934 22.5986 57° Northeast  Level Estimated
Tue 08:24:00 AM 59.6523 22.7822 58° Northeast  Level Estimated
Tue 08:25:00 AM 59.7109 22.9664 58° Northeast  Level Estimated
Tue 08:26:00 AM 59.7693 23.1512 58° Northeast  Level Estimated
Tue 08:27:00 AM 59.8273 23.3367 58° Northeast  Level Estimated
Tue 08:28:00 AM 59.8852 23.5229 58° Northeast  Level Estimated
Tue 08:29:00 AM 59.9427 23.7097 58° Northeast  Level Estimated
Tue 08:30:00 AM 60.0000 23.8971 59° Northeast  Level Estimated
Tue 08:31:00 AM 60.0570 24.0852 59° Northeast  Level Estimated
Tue 08:32:00 AM 60.1189 24.2909 59° Northeast  Level Estimated
Tue 08:33:00 AM 60.1804 24.4973 59° Northeast  Level Estimated
Tue 08:34:00 AM 60.2416 24.7046 59° Northeast  Level Estimated
Tue 08:35:00 AM 60.3024 24.9126 59° Northeast  Level Estimated
Tue 08:36:00 AM 60.3172 24.9633 60° Northeast  Level Estimated
Tue 08:37:00 AM 60.3172 24.9633 North  Level Estimated
Tue 08:38:00 AM 60.3172 24.9633 North  Level Estimated
Tue 08:39:00 AM 60.3172 24.9633 North  Level Estimated
Tue 08:40:00 AM 60.3172 24.9633 North  Level Estimated
Tue 08:41:00 AM 60.3172 24.9633 North  Level Estimated
Tue 08:42:00 AM 60.3172 24.9633 North  Level Estimated
Tue 08:43:00 AM 60.3172 24.9633 North  Level Estimated
Tue 08:44:00 AM 60.3172 24.9633 North  Level Estimated

Login

Don't have an account? Register now (free) for customized features, flight alerts, and more!